createdAt,value
2023-05-07T00:00:32.224Z,13.00
2023-05-07T00:01:32.399Z,13.00
2023-05-07T00:02:32.513Z,12.99
2023-05-07T00:03:32.642Z,12.99
2023-05-07T00:04:32.665Z,12.98
2023-05-07T00:05:32.750Z,12.98
2023-05-07T00:06:32.921Z,12.98
2023-05-07T00:07:33.044Z,12.97
2023-05-07T00:08:33.153Z,12.96
2023-05-07T00:09:33.259Z,12.95
2023-05-07T00:10:33.403Z,12.95
2023-05-07T00:11:35.005Z,12.94
2023-05-07T00:12:33.738Z,12.94
2023-05-07T00:13:33.794Z,12.94
2023-05-07T00:14:33.936Z,12.94
2023-05-07T00:15:34.083Z,12.94
2023-05-07T00:16:34.220Z,12.94
2023-05-07T00:17:34.408Z,12.94
2023-05-07T00:18:34.408Z,12.94
2023-05-07T00:19:34.540Z,12.95
2023-05-07T00:20:36.226Z,12.95
2023-05-07T00:21:34.786Z,12.95
2023-05-07T00:22:34.894Z,12.94
2023-05-07T00:23:35.010Z,12.94
2023-05-07T00:24:35.153Z,12.93
2023-05-07T00:25:35.260Z,12.93
2023-05-07T00:26:35.397Z,12.93
2023-05-07T00:27:35.536Z,12.94
2023-05-07T00:28:35.647Z,12.93
2023-05-07T00:29:35.759Z,12.93
2023-05-07T00:30:35.879Z,12.93
2023-05-07T00:31:36.036Z,12.92
2023-05-07T00:32:36.228Z,12.91
2023-05-07T00:33:36.263Z,12.90
2023-05-07T00:34:36.417Z,12.90
2023-05-07T00:35:36.516Z,12.89
2023-05-07T00:36:36.623Z,12.89
2023-05-07T00:37:36.798Z,12.89
2023-05-07T00:38:36.900Z,12.88
2023-05-07T00:39:37.045Z,12.88
2023-05-07T00:40:37.141Z,12.87
2023-05-07T00:41:37.288Z,12.87
2023-05-07T00:42:37.634Z,12.87
2023-05-07T00:43:37.568Z,12.87
2023-05-07T00:44:37.687Z,12.87
2023-05-07T00:45:37.841Z,12.87
2023-05-07T00:46:37.964Z,12.87
2023-05-07T00:47:38.043Z,12.87
2023-05-07T00:48:38.132Z,12.87
2023-05-07T00:49:38.317Z,12.86
2023-05-07T00:50:38.341Z,12.86
2023-05-07T00:51:38.439Z,12.86
2023-05-07T00:52:38.598Z,12.85
2023-05-07T00:53:38.727Z,12.85
2023-05-07T00:54:38.820Z,12.84
2023-05-07T00:55:38.928Z,12.83
2023-05-07T00:56:39.026Z,12.82
2023-05-07T00:57:39.153Z,12.81
2023-05-07T00:58:39.299Z,12.80
2023-05-07T00:59:39.430Z,12.79
2023-05-07T01:00:39.516Z,12.79
2023-05-07T01:01:39.769Z,12.79
2023-05-07T01:02:39.818Z,12.78
2023-05-07T01:03:39.907Z,12.78
2023-05-07T01:04:40.090Z,12.79
2023-05-07T01:05:40.150Z,12.79
2023-05-07T01:06:40.275Z,12.79
2023-05-07T01:07:40.409Z,12.78
2023-05-07T01:08:40.508Z,12.78
2023-05-07T01:09:40.718Z,12.78
2023-05-07T01:10:40.783Z,12.78
2023-05-07T01:11:40.866Z,12.77
2023-05-07T01:12:41.166Z,12.77
2023-05-07T01:13:41.159Z,12.76
2023-05-07T01:14:41.328Z,12.76
2023-05-07T01:15:41.428Z,12.75
2023-05-07T01:16:41.570Z,12.75
2023-05-07T01:17:41.724Z,12.75
2023-05-07T01:18:41.800Z,12.75
2023-05-07T01:19:41.868Z,12.75
2023-05-07T01:20:41.991Z,12.75
2023-05-07T01:21:42.101Z,12.76
2023-05-07T01:22:42.220Z,12.76
2023-05-07T01:23:42.342Z,12.77
2023-05-07T01:24:42.454Z,12.77
2023-05-07T01:25:42.556Z,12.77
2023-05-07T01:26:42.747Z,12.76
2023-05-07T01:27:42.841Z,12.76
2023-05-07T01:28:43.006Z,12.75
2023-05-07T01:29:43.114Z,12.74
2023-05-07T01:30:43.206Z,12.73
2023-05-07T01:31:43.329Z,12.72
2023-05-07T01:32:43.493Z,12.71
2023-05-07T01:33:43.610Z,12.70
2023-05-07T01:34:43.733Z,12.69
2023-05-07T01:35:44.190Z,12.69
2023-05-07T01:36:43.963Z,12.68
2023-05-07T01:37:44.122Z,12.68
2023-05-07T01:38:44.252Z,12.67
2023-05-07T01:39:44.405Z,12.67
2023-05-07T01:40:44.618Z,12.66
2023-05-07T01:41:44.649Z,12.65
2023-05-07T01:42:44.807Z,12.64
2023-05-07T01:43:44.858Z,12.63
2023-05-07T01:44:45.038Z,12.63
2023-05-07T01:45:45.158Z,12.62
2023-05-07T01:46:45.325Z,12.61
2023-05-07T01:47:45.390Z,12.61
2023-05-07T01:48:45.515Z,12.60
2023-05-07T01:49:45.639Z,12.59
2023-05-07T01:50:45.802Z,12.58
2023-05-07T01:51:45.853Z,12.56
2023-05-07T01:52:45.950Z,12.54
2023-05-07T01:53:46.064Z,12.52
2023-05-07T01:54:46.230Z,12.50
2023-05-07T01:55:46.378Z,12.49
2023-05-07T01:56:46.445Z,12.47
2023-05-07T01:57:46.597Z,12.46
2023-05-07T01:58:46.683Z,12.45
2023-05-07T01:59:46.769Z,12.44
2023-05-07T02:00:47.084Z,12.43
2023-05-07T02:01:47.117Z,12.41
2023-05-07T02:02:47.384Z,12.40
2023-05-07T02:03:47.477Z,12.39
2023-05-07T02:04:47.438Z,12.37
2023-05-07T02:05:47.603Z,12.36
2023-05-07T02:06:47.687Z,12.35
2023-05-07T02:07:47.850Z,12.33
2023-05-07T02:08:47.853Z,12.32
2023-05-07T02:09:48.001Z,12.30
2023-05-07T02:10:48.099Z,12.29
2023-05-07T02:11:48.279Z,12.27
2023-05-07T02:12:48.404Z,12.26
2023-05-07T02:13:48.527Z,12.24
2023-05-07T02:14:48.656Z,12.22
2023-05-07T02:15:48.762Z,12.21
2023-05-07T02:16:48.949Z,12.19
2023-05-07T02:17:49.070Z,12.18
2023-05-07T02:18:49.178Z,12.17
2023-05-07T02:19:49.349Z,12.17
2023-05-07T02:20:49.382Z,12.16
2023-05-07T02:21:49.544Z,12.16
2023-05-07T02:22:49.572Z,12.16
2023-05-07T02:23:49.731Z,12.15
2023-05-07T02:24:49.817Z,12.15
2023-05-07T02:25:49.947Z,12.15
2023-05-07T02:26:50.085Z,12.16
2023-05-07T02:27:50.201Z,12.16
2023-05-07T02:28:50.271Z,12.16
2023-05-07T02:29:50.475Z,12.17
2023-05-07T02:30:50.521Z,12.17
2023-05-07T02:31:50.675Z,12.16
2023-05-07T02:32:50.858Z,12.16
2023-05-07T02:33:50.877Z,12.15
2023-05-07T02:34:51.029Z,12.15
2023-05-07T02:35:51.251Z,12.14
2023-05-07T02:36:51.253Z,12.14
2023-05-07T02:37:51.438Z,12.13
2023-05-07T02:38:51.501Z,12.13
2023-05-07T02:39:51.678Z,12.13
2023-05-07T02:40:51.794Z,12.13
2023-05-07T02:41:51.909Z,12.13
2023-05-07T02:42:52.032Z,12.12
2023-05-07T02:43:52.148Z,12.12
2023-05-07T02:44:52.256Z,12.12
2023-05-07T02:45:52.461Z,12.13
2023-05-07T02:46:52.631Z,12.13
2023-05-07T02:47:52.676Z,12.13
2023-05-07T02:48:52.821Z,12.12
2023-05-07T02:49:52.916Z,12.12
2023-05-07T02:50:53.092Z,12.12
2023-05-07T02:51:53.222Z,12.11
2023-05-07T02:52:53.365Z,12.11
2023-05-07T02:53:53.450Z,12.11
2023-05-07T02:54:53.595Z,12.12
2023-05-07T02:55:53.721Z,12.13
2023-05-07T02:56:53.797Z,12.14
2023-05-07T02:57:53.912Z,12.14
2023-05-07T02:58:54.047Z,12.15
2023-05-07T02:59:54.155Z,12.15
2023-05-07T03:00:54.419Z,12.15
2023-05-07T03:01:54.466Z,12.15
2023-05-07T03:02:54.497Z,12.14
2023-05-07T03:03:54.634Z,12.14
2023-05-07T03:04:54.756Z,12.13
2023-05-07T03:05:54.954Z,12.12
2023-05-07T03:06:55.175Z,12.11
2023-05-07T03:07:55.165Z,12.11
2023-05-07T03:08:55.256Z,12.11
2023-05-07T03:09:55.381Z,12.11
2023-05-07T03:10:55.490Z,12.11
2023-05-07T03:11:55.695Z,12.11
2023-05-07T03:12:55.822Z,12.11
2023-05-07T03:13:55.887Z,12.12
2023-05-07T03:14:55.945Z,12.12
2023-05-07T03:15:56.139Z,12.12
2023-05-07T03:16:56.276Z,12.12
2023-05-07T03:17:56.366Z,12.12
2023-05-07T03:18:56.551Z,12.11
2023-05-07T03:19:56.542Z,12.11
2023-05-07T03:20:56.719Z,12.10
2023-05-07T03:21:56.881Z,12.09
2023-05-07T03:22:56.915Z,12.08
2023-05-07T03:23:57.087Z,12.08
2023-05-07T03:24:57.204Z,12.07
2023-05-07T03:25:57.426Z,12.06
2023-05-07T03:26:57.514Z,12.05
2023-05-07T03:27:57.619Z,12.04
2023-05-07T03:28:57.724Z,12.03
2023-05-07T03:29:57.814Z,12.03
2023-05-07T03:30:58.002Z,12.02
2023-05-07T03:31:58.111Z,12.01
2023-05-07T03:32:58.292Z,12.00
2023-05-07T03:33:58.315Z,11.99
2023-05-07T03:34:58.437Z,11.98
2023-05-07T03:35:58.557Z,11.97
2023-05-07T03:36:58.694Z,11.97
2023-05-07T03:37:58.793Z,11.96
2023-05-07T03:38:58.988Z,11.96
2023-05-07T03:39:59.026Z,11.95
2023-05-07T03:40:59.182Z,11.95
2023-05-07T03:41:59.333Z,11.95
2023-05-07T03:42:59.436Z,11.95
2023-05-07T03:43:59.559Z,11.95
2023-05-07T03:44:59.692Z,11.94
2023-05-07T03:45:59.865Z,11.94
2023-05-07T03:47:00.040Z,11.93
2023-05-07T03:48:00.874Z,11.92
2023-05-07T03:49:00.200Z,11.91
2023-05-07T03:50:00.324Z,11.91
2023-05-07T03:51:00.533Z,11.91
2023-05-07T03:52:00.584Z,11.91
2023-05-07T03:53:00.676Z,11.91
2023-05-07T03:54:00.836Z,11.92
2023-05-07T03:55:00.916Z,11.92
2023-05-07T03:56:01.023Z,11.93
2023-05-07T03:57:01.128Z,11.94
2023-05-07T03:58:01.341Z,11.96
2023-05-07T03:59:01.398Z,11.97
2023-05-07T04:00:01.478Z,11.98
2023-05-07T04:01:01.699Z,11.99
2023-05-07T04:02:05.017Z,12.00
2023-05-07T04:03:01.909Z,12.01
2023-05-07T04:04:02.102Z,12.02
2023-05-07T04:05:02.117Z,12.03
2023-05-07T04:06:02.275Z,12.04
2023-05-07T04:07:02.516Z,12.05
2023-05-07T04:08:02.512Z,12.05
2023-05-07T04:09:02.651Z,12.05
2023-05-07T04:10:02.850Z,12.06
2023-05-07T04:11:02.878Z,12.06
2023-05-07T04:12:02.984Z,12.07
2023-05-07T04:13:06.837Z,12.07
2023-05-07T04:14:03.280Z,12.07
2023-05-07T04:15:03.391Z,12.06
2023-05-07T04:16:03.585Z,12.06
2023-05-07T04:17:03.690Z,12.05
2023-05-07T04:18:03.812Z,12.05
2023-05-07T04:19:03.901Z,12.05
2023-05-07T04:20:04.019Z,12.05
2023-05-07T04:21:04.076Z,12.06
2023-05-07T04:22:04.229Z,12.06
2023-05-07T04:23:04.350Z,12.06
2023-05-07T04:24:04.537Z,12.07
2023-05-07T04:25:04.695Z,12.07
2023-05-07T04:26:04.795Z,12.07
2023-05-07T04:27:04.886Z,12.08
2023-05-07T04:28:05.091Z,12.09
2023-05-07T04:29:05.156Z,12.09
2023-05-07T04:30:05.301Z,12.10
2023-05-07T04:31:05.424Z,12.11
2023-05-07T04:32:05.636Z,12.12
2023-05-07T04:33:05.785Z,12.13
2023-05-07T04:34:05.885Z,12.14
2023-05-07T04:35:05.953Z,12.15
2023-05-07T04:36:06.133Z,12.16
2023-05-07T04:37:06.264Z,12.18
2023-05-07T04:38:06.285Z,12.19
2023-05-07T04:39:06.417Z,12.20
2023-05-07T04:40:06.537Z,12.21
2023-05-07T04:41:06.663Z,12.22
2023-05-07T04:42:06.796Z,12.23
2023-05-07T04:43:06.874Z,12.23
2023-05-07T04:44:07.092Z,12.22
2023-05-07T04:45:07.140Z,12.22
2023-05-07T04:46:07.274Z,12.23
2023-05-07T04:47:07.427Z,12.23
2023-05-07T04:48:07.544Z,12.23
2023-05-07T04:49:07.643Z,12.24
2023-05-07T04:50:07.741Z,12.25
2023-05-07T04:51:07.927Z,12.26
2023-05-07T04:52:08.042Z,12.27
2023-05-07T04:53:08.200Z,12.28
2023-05-07T04:54:08.410Z,12.28
2023-05-07T04:55:08.392Z,12.30
2023-05-07T04:56:08.597Z,12.32
2023-05-07T04:57:08.694Z,12.34
2023-05-07T04:58:08.777Z,12.36
2023-05-07T04:59:09.300Z,12.37
2023-05-07T05:00:09.200Z,12.39
2023-05-07T05:01:09.215Z,12.40
2023-05-07T05:02:09.303Z,12.41
2023-05-07T05:03:09.463Z,12.42
2023-05-07T05:04:09.649Z,12.44
2023-05-07T05:05:09.686Z,12.45
2023-05-07T05:06:09.735Z,12.47
2023-05-07T05:07:09.879Z,12.48
2023-05-07T05:08:10.028Z,12.49
2023-05-07T05:09:10.098Z,12.49
2023-05-07T05:10:10.393Z,12.50
2023-05-07T05:11:10.320Z,12.51
2023-05-07T05:12:10.529Z,12.52
2023-05-07T05:13:10.566Z,12.54
2023-05-07T05:14:10.652Z,12.55
2023-05-07T05:15:10.727Z,12.55
2023-05-07T05:16:10.931Z,12.55
2023-05-07T05:17:10.921Z,12.55
2023-05-07T05:18:11.105Z,12.56
2023-05-07T05:19:11.257Z,12.56
2023-05-07T05:20:11.529Z,12.57
2023-05-07T05:21:11.478Z,12.58
2023-05-07T05:22:11.556Z,12.59
2023-05-07T05:23:11.679Z,12.59
2023-05-07T05:24:11.760Z,12.59
2023-05-07T05:25:11.884Z,12.59
2023-05-07T05:26:12.055Z,12.60
2023-05-07T05:27:12.148Z,12.61
2023-05-07T05:28:12.297Z,12.62
2023-05-07T05:29:12.460Z,12.64
2023-05-07T05:30:12.738Z,12.67
2023-05-07T05:31:12.690Z,12.71
2023-05-07T05:32:12.767Z,12.74
2023-05-07T05:33:12.952Z,12.78
2023-05-07T05:34:12.991Z,12.81
2023-05-07T05:35:13.097Z,12.84
2023-05-07T05:36:13.229Z,12.86
2023-05-07T05:37:13.356Z,12.90
2023-05-07T05:38:13.440Z,12.93
2023-05-07T05:39:13.561Z,12.95
2023-05-07T05:40:13.760Z,12.97
2023-05-07T05:41:13.763Z,12.99
2023-05-07T05:42:13.927Z,13.01
2023-05-07T05:43:14.010Z,13.04
2023-05-07T05:44:14.142Z,13.06
2023-05-07T05:45:14.326Z,13.08
2023-05-07T05:46:14.489Z,13.10
2023-05-07T05:47:14.617Z,13.12
2023-05-07T05:48:14.779Z,13.13
2023-05-07T05:49:14.802Z,13.14
2023-05-07T05:50:14.898Z,13.15
2023-05-07T05:51:15.042Z,13.15
2023-05-07T05:52:15.187Z,13.16
2023-05-07T05:53:15.299Z,13.17
2023-05-07T05:54:15.380Z,13.18
2023-05-07T05:55:15.494Z,13.20
2023-05-07T05:56:15.583Z,13.23
2023-05-07T05:57:15.776Z,13.25
2023-05-07T05:58:15.887Z,13.28
2023-05-07T05:59:16.103Z,13.30
2023-05-07T06:00:16.145Z,13.33
2023-05-07T06:01:16.224Z,13.35
2023-05-07T06:02:16.542Z,13.38
2023-05-07T06:03:16.594Z,13.38
2023-05-07T06:04:16.713Z,13.39
2023-05-07T06:05:16.821Z,13.42
2023-05-07T06:06:16.937Z,13.46
2023-05-07T06:07:17.043Z,13.51
2023-05-07T06:08:17.159Z,13.55
2023-05-07T06:09:17.248Z,13.60
2023-05-07T06:10:17.489Z,13.63
2023-05-07T06:11:17.494Z,13.64
2023-05-07T06:12:17.618Z,13.64
2023-05-07T06:13:17.834Z,13.64
2023-05-07T06:14:17.835Z,13.65
2023-05-07T06:15:17.957Z,13.66
2023-05-07T06:16:18.128Z,13.66
2023-05-07T06:17:20.883Z,13.68
2023-05-07T06:18:18.299Z,13.69
2023-05-07T06:19:18.394Z,13.72
2023-05-07T06:20:18.543Z,13.75
2023-05-07T06:21:18.653Z,13.77
2023-05-07T06:22:18.800Z,13.79
2023-05-07T06:23:18.850Z,13.81
2023-05-07T06:24:19.051Z,13.84
2023-05-07T06:25:19.117Z,13.87
2023-05-07T06:26:19.236Z,13.90
2023-05-07T06:27:19.390Z,13.93
2023-05-07T06:28:19.498Z,13.94
2023-05-07T06:29:19.651Z,13.97
2023-05-07T06:30:19.807Z,13.99
2023-05-07T06:31:19.897Z,14.03
2023-05-07T06:32:20.024Z,14.07
2023-05-07T06:33:20.129Z,14.10
2023-05-07T06:34:20.231Z,14.13
2023-05-07T06:35:20.365Z,14.14
2023-05-07T06:36:20.517Z,14.15
2023-05-07T06:37:20.621Z,14.17
2023-05-07T06:38:20.745Z,14.20
2023-05-07T06:39:20.814Z,14.24
2023-05-07T06:40:20.923Z,14.26
2023-05-07T06:41:21.098Z,14.31
2023-05-07T06:42:21.148Z,14.36
2023-05-07T06:43:21.250Z,14.41
2023-05-07T06:44:21.347Z,14.44
2023-05-07T06:45:22.011Z,14.45
2023-05-07T06:46:21.691Z,14.45
2023-05-07T06:47:21.728Z,14.45
2023-05-07T06:48:21.847Z,14.45
2023-05-07T06:49:22.012Z,14.46
2023-05-07T06:50:22.103Z,14.47
2023-05-07T06:51:22.610Z,14.49
2023-05-07T06:52:22.325Z,14.52
2023-05-07T06:53:22.433Z,14.56
2023-05-07T06:54:24.319Z,14.60
2023-05-07T06:55:22.677Z,14.63
2023-05-07T06:56:22.773Z,14.66
2023-05-07T06:57:22.924Z,14.70
2023-05-07T06:58:23.017Z,14.73
2023-05-07T06:59:23.124Z,14.77
2023-05-07T07:00:23.201Z,14.81
2023-05-07T07:01:23.374Z,14.86
2023-05-07T07:02:23.555Z,14.91
2023-05-07T07:03:23.529Z,14.95
2023-05-07T07:04:25.700Z,14.98
2023-05-07T07:05:23.777Z,15.02
2023-05-07T07:06:23.859Z,15.06
2023-05-07T07:07:24.008Z,15.10
2023-05-07T07:08:24.036Z,15.15
2023-05-07T07:09:24.295Z,15.20
2023-05-07T07:10:24.401Z,15.26
2023-05-07T07:11:24.444Z,15.32
2023-05-07T07:12:24.580Z,15.34
2023-05-07T07:13:24.809Z,15.36
2023-05-07T07:14:24.830Z,15.37
2023-05-07T07:15:24.982Z,15.39
2023-05-07T07:16:25.094Z,15.41
2023-05-07T07:17:25.361Z,15.41
2023-05-07T07:18:25.366Z,15.43
2023-05-07T07:19:25.534Z,15.45
2023-05-07T07:20:25.741Z,15.49
2023-05-07T07:21:25.766Z,15.55
2023-05-07T07:22:25.933Z,15.62
2023-05-07T07:23:26.026Z,15.69
2023-05-07T07:24:26.145Z,15.76
2023-05-07T07:25:26.269Z,15.83
2023-05-07T07:26:26.301Z,15.90
2023-05-07T07:27:26.425Z,15.97
2023-05-07T07:28:26.511Z,16.04
2023-05-07T07:29:26.661Z,16.10
2023-05-07T07:30:26.919Z,16.17
2023-05-07T07:31:27.041Z,16.24
2023-05-07T07:32:27.184Z,16.30
2023-05-07T07:33:27.241Z,16.36
2023-05-07T07:34:27.313Z,16.40
2023-05-07T07:35:27.420Z,16.45
2023-05-07T07:36:35.447Z,16.50
2023-05-07T07:37:28.645Z,16.56
2023-05-07T07:38:27.779Z,16.62
2023-05-07T07:39:27.895Z,16.69
2023-05-07T07:40:28.011Z,16.76
2023-05-07T07:41:28.152Z,16.84
2023-05-07T07:42:28.251Z,16.90
2023-05-07T07:43:28.431Z,16.95
2023-05-07T07:44:28.502Z,16.99
2023-05-07T07:45:28.626Z,17.02
2023-05-07T07:46:28.747Z,17.05
2023-05-07T07:47:28.927Z,17.08
2023-05-07T07:48:29.000Z,17.11
2023-05-07T07:49:29.131Z,17.15
2023-05-07T07:50:43.579Z,17.18
2023-05-07T07:51:30.363Z,17.21
2023-05-07T07:52:29.490Z,17.24
2023-05-07T07:53:29.593Z,17.27
2023-05-07T07:54:29.721Z,17.30
2023-05-07T07:55:29.831Z,17.35
2023-05-07T07:56:29.922Z,17.39
2023-05-07T07:57:30.045Z,17.43
2023-05-07T07:58:30.145Z,17.46
2023-05-07T07:59:30.370Z,17.47
2023-05-07T08:00:30.357Z,17.49
2023-05-07T08:01:30.518Z,17.53
2023-05-07T08:02:30.728Z,17.58
2023-05-07T08:03:30.869Z,17.61
2023-05-07T08:04:30.968Z,17.62
2023-05-07T08:05:31.074Z,17.63
2023-05-07T08:06:31.149Z,17.64
2023-05-07T08:07:31.224Z,17.64
2023-05-07T08:08:31.422Z,17.63
2023-05-07T08:09:31.555Z,17.62
2023-05-07T08:10:33.532Z,17.62
2023-05-07T08:11:31.798Z,17.65
2023-05-07T08:12:31.898Z,17.69
2023-05-07T08:13:32.050Z,17.76
2023-05-07T08:14:32.240Z,17.81
2023-05-07T08:15:32.387Z,17.87
2023-05-07T08:16:32.548Z,17.94
2023-05-07T08:17:32.626Z,18.00
2023-05-07T08:18:32.745Z,18.03
2023-05-07T08:19:32.866Z,18.05
2023-05-07T08:20:32.976Z,18.08
2023-05-07T08:21:34.584Z,18.13
2023-05-07T08:22:33.258Z,18.18
2023-05-07T08:23:33.337Z,18.23
2023-05-07T08:24:33.390Z,18.28
2023-05-07T08:25:33.545Z,18.33
2023-05-07T08:26:33.710Z,18.37
2023-05-07T08:27:33.792Z,18.42
2023-05-07T08:28:33.889Z,18.47
2023-05-07T08:29:34.030Z,18.54
2023-05-07T08:30:34.321Z,18.63
2023-05-07T08:31:34.285Z,18.70
2023-05-07T08:32:34.408Z,18.75
2023-05-07T08:33:34.533Z,18.77
2023-05-07T08:34:34.712Z,18.79
2023-05-07T08:35:34.872Z,18.82
2023-05-07T08:36:34.955Z,18.87
2023-05-07T08:37:35.051Z,18.91
2023-05-07T08:38:35.192Z,18.95
2023-05-07T08:39:35.388Z,18.98
2023-05-07T08:40:35.423Z,18.99
2023-05-07T08:41:35.531Z,19.02
2023-05-07T08:42:35.637Z,19.10
2023-05-07T08:43:35.748Z,19.21
2023-05-07T08:44:35.907Z,19.31
2023-05-07T08:45:36.010Z,19.37
2023-05-07T08:46:36.218Z,19.39
2023-05-07T08:47:36.356Z,19.34
2023-05-07T08:48:36.452Z,19.25
2023-05-07T08:49:36.500Z,19.18
2023-05-07T08:50:36.736Z,19.11
2023-05-07T08:51:36.789Z,19.05
2023-05-07T08:52:36.869Z,19.04
2023-05-07T08:53:36.966Z,19.05
2023-05-07T08:54:37.134Z,19.05
2023-05-07T08:55:37.236Z,19.05
2023-05-07T08:56:37.337Z,19.07
2023-05-07T08:57:40.274Z,19.11
2023-05-07T08:58:37.556Z,19.18
2023-05-07T08:59:37.735Z,19.25
2023-05-07T09:00:37.785Z,19.28
2023-05-07T09:01:37.929Z,19.34
2023-05-07T09:02:38.110Z,19.47
2023-05-07T09:03:38.161Z,19.63
2023-05-07T09:04:38.280Z,19.78
2023-05-07T09:05:38.372Z,19.93
2023-05-07T09:06:38.580Z,20.03
2023-05-07T09:07:38.626Z,20.09
2023-05-07T09:08:38.714Z,20.14
2023-05-07T09:09:38.885Z,20.16
2023-05-07T09:10:39.036Z,20.13
2023-05-07T09:11:39.135Z,20.12
2023-05-07T09:12:39.367Z,20.17
2023-05-07T09:13:39.428Z,20.20
2023-05-07T09:14:39.552Z,20.23
2023-05-07T09:15:39.686Z,20.31
2023-05-07T09:16:39.858Z,20.44
2023-05-07T09:17:40.056Z,20.62
2023-05-07T09:18:40.051Z,20.82
2023-05-07T09:19:40.195Z,21.02
2023-05-07T09:20:40.339Z,21.20
2023-05-07T09:21:40.452Z,21.30
2023-05-07T09:22:40.623Z,21.33
2023-05-07T09:23:40.818Z,21.32
2023-05-07T09:24:40.844Z,21.28
2023-05-07T09:25:40.977Z,21.22
2023-05-07T09:26:41.076Z,21.23
2023-05-07T09:27:41.236Z,21.34
2023-05-07T09:28:41.351Z,21.47
2023-05-07T09:29:41.480Z,21.61
2023-05-07T09:30:41.626Z,21.75
2023-05-07T09:31:41.804Z,21.79
2023-05-07T09:32:41.980Z,21.78
2023-05-07T09:33:42.014Z,21.82
2023-05-07T09:34:42.121Z,21.88
2023-05-07T09:35:42.237Z,21.95
2023-05-07T09:36:42.354Z,22.02
2023-05-07T09:37:42.525Z,22.07
2023-05-07T09:38:42.846Z,22.10
2023-05-07T09:39:42.779Z,22.09
2023-05-07T09:40:42.860Z,21.98
2023-05-07T09:41:43.038Z,21.88
2023-05-07T09:42:43.094Z,21.84
2023-05-07T09:43:43.249Z,21.83
2023-05-07T09:44:43.327Z,21.81
2023-05-07T09:45:43.512Z,21.78
2023-05-07T09:46:43.556Z,21.74
2023-05-07T09:47:43.746Z,21.77
2023-05-07T09:48:43.810Z,21.87
2023-05-07T09:49:43.931Z,21.95
2023-05-07T09:50:44.138Z,22.02
2023-05-07T09:51:44.206Z,22.06
2023-05-07T09:52:44.269Z,22.03
2023-05-07T09:53:44.418Z,21.96
2023-05-07T09:54:44.546Z,21.89
2023-05-07T09:55:44.678Z,21.80
2023-05-07T09:56:44.769Z,21.70
2023-05-07T09:57:44.877Z,21.58
2023-05-07T09:58:45.004Z,21.46
2023-05-07T09:59:45.152Z,21.34
2023-05-07T10:00:45.306Z,21.24
2023-05-07T10:01:45.386Z,21.18
2023-05-07T10:02:45.724Z,21.20
2023-05-07T10:03:45.833Z,21.26
2023-05-07T10:04:45.788Z,21.28
2023-05-07T10:05:45.909Z,21.23
2023-05-07T10:06:46.030Z,21.17
2023-05-07T10:07:46.207Z,21.15
2023-05-07T10:08:46.327Z,21.18
2023-05-07T10:09:48.886Z,21.24
2023-05-07T10:10:46.593Z,21.30
2023-05-07T10:11:46.722Z,21.33
2023-05-07T10:12:46.813Z,21.34
2023-05-07T10:13:46.906Z,21.35
2023-05-07T10:14:47.022Z,21.33
2023-05-07T10:15:47.122Z,21.27
2023-05-07T10:16:47.296Z,21.23
2023-05-07T10:17:47.480Z,21.25
2023-05-07T10:18:47.634Z,21.30
2023-05-07T10:19:47.667Z,21.33
2023-05-07T10:20:48.000Z,21.31
2023-05-07T10:21:47.898Z,21.30
2023-05-07T10:22:48.079Z,21.33
2023-05-07T10:23:48.116Z,21.38
2023-05-07T10:24:48.304Z,21.44
2023-05-07T10:25:48.381Z,21.49
2023-05-07T10:26:48.503Z,21.54
2023-05-07T10:27:48.617Z,21.59
2023-05-07T10:28:48.704Z,21.60
2023-05-07T10:29:48.864Z,21.58
2023-05-07T10:30:49.026Z,21.57
2023-05-07T10:31:49.155Z,21.59
2023-05-07T10:32:49.287Z,21.62
2023-05-07T10:33:49.423Z,21.65
2023-05-07T10:34:49.561Z,21.66
2023-05-07T10:35:49.637Z,21.67
2023-05-07T10:36:49.877Z,21.66
2023-05-07T10:37:49.969Z,21.65
2023-05-07T10:38:50.022Z,21.66
2023-05-07T10:39:50.128Z,21.66
2023-05-07T10:40:50.225Z,21.62
2023-05-07T10:41:50.366Z,21.57
2023-05-07T10:42:50.464Z,21.54
2023-05-07T10:43:50.576Z,21.56
2023-05-07T10:44:50.749Z,21.62
2023-05-07T10:45:50.883Z,21.68
2023-05-07T10:46:51.010Z,21.74
2023-05-07T10:47:51.179Z,21.77
2023-05-07T10:48:51.273Z,21.76
2023-05-07T10:49:51.434Z,21.70
2023-05-07T10:50:51.565Z,21.65
2023-05-07T10:51:51.718Z,21.64
2023-05-07T10:52:51.746Z,21.65
2023-05-07T10:53:51.901Z,21.66
2023-05-07T10:54:51.995Z,21.65
2023-05-07T10:55:52.145Z,21.59
2023-05-07T10:56:52.363Z,21.51
2023-05-07T10:57:52.446Z,21.45
2023-05-07T10:58:52.577Z,21.41
2023-05-07T10:59:52.690Z,21.38
2023-05-07T11:00:52.781Z,21.37
2023-05-07T11:01:53.035Z,21.35
2023-05-07T11:02:53.110Z,21.33
2023-05-07T11:03:53.185Z,21.25
2023-05-07T11:04:53.340Z,21.13
2023-05-07T11:05:53.478Z,21.05
2023-05-07T11:06:53.650Z,21.03
2023-05-07T11:07:53.780Z,21.02
2023-05-07T11:08:53.875Z,21.01
2023-05-07T11:09:54.038Z,21.00
2023-05-07T11:10:54.138Z,20.99
2023-05-07T11:11:54.226Z,20.98
2023-05-07T11:12:54.413Z,20.99
2023-05-07T11:13:54.469Z,21.00
2023-05-07T11:14:54.616Z,21.03
2023-05-07T11:15:54.776Z,21.06
2023-05-07T11:16:54.836Z,21.08
2023-05-07T11:17:55.104Z,21.06
2023-05-07T11:18:55.116Z,21.04
2023-05-07T11:19:55.198Z,21.04
2023-05-07T11:20:55.355Z,21.07
2023-05-07T11:21:55.485Z,21.08
2023-05-07T11:22:56.672Z,21.05
2023-05-07T11:23:55.747Z,20.99
2023-05-07T11:24:55.895Z,20.90
2023-05-07T11:25:56.040Z,20.78
2023-05-07T11:26:56.133Z,20.67
2023-05-07T11:27:56.258Z,20.62
2023-05-07T11:28:56.423Z,20.58
2023-05-07T11:29:56.465Z,20.51
2023-05-07T11:30:56.594Z,20.41
2023-05-07T11:31:56.734Z,20.32
2023-05-07T11:32:56.854Z,20.25
2023-05-07T11:33:56.968Z,20.19
2023-05-07T11:34:57.066Z,20.11
2023-05-07T11:35:57.181Z,20.04
2023-05-07T11:36:57.317Z,20.02
2023-05-07T11:37:57.538Z,20.03
2023-05-07T11:38:57.616Z,20.06
2023-05-07T11:39:57.777Z,20.07
2023-05-07T11:40:57.836Z,20.05
2023-05-07T11:41:57.973Z,20.02
2023-05-07T11:42:58.125Z,20.00
2023-05-07T11:43:58.269Z,19.98
2023-05-07T11:44:58.334Z,19.96
2023-05-07T11:45:58.487Z,19.96
2023-05-07T11:46:59.714Z,19.96
2023-05-07T11:47:58.765Z,19.96
2023-05-07T11:48:58.899Z,19.94
2023-05-07T11:49:58.971Z,19.92
2023-05-07T11:50:59.120Z,19.90
2023-05-07T11:51:59.209Z,19.86
2023-05-07T11:52:59.328Z,19.80
2023-05-07T11:53:59.478Z,19.73
2023-05-07T11:54:59.574Z,19.60
2023-05-07T11:55:59.721Z,19.43
2023-05-07T11:56:59.832Z,19.25
2023-05-07T11:58:00.029Z,19.06
2023-05-07T11:59:00.130Z,18.83
2023-05-07T12:00:00.187Z,18.58
2023-05-07T12:01:00.296Z,18.35
2023-05-07T12:02:00.455Z,18.15
2023-05-07T12:03:00.844Z,18.02
2023-05-07T12:04:00.782Z,17.95
2023-05-07T12:05:00.861Z,17.92
2023-05-07T12:06:00.988Z,17.92
2023-05-07T12:07:01.119Z,17.92
2023-05-07T12:08:01.313Z,17.93
2023-05-07T12:09:01.377Z,17.94
2023-05-07T12:10:01.535Z,17.97
2023-05-07T12:11:01.686Z,18.02
2023-05-07T12:12:01.693Z,18.07
2023-05-07T12:13:01.856Z,18.12
2023-05-07T12:14:01.983Z,18.18
2023-05-07T12:15:02.052Z,18.24
2023-05-07T12:16:02.160Z,18.31
2023-05-07T12:17:02.345Z,18.36
2023-05-07T12:18:02.657Z,18.41
2023-05-07T12:19:02.573Z,18.47
2023-05-07T12:20:02.751Z,18.52
2023-05-07T12:21:02.762Z,18.56
2023-05-07T12:22:02.948Z,18.60
2023-05-07T12:23:03.018Z,18.63
2023-05-07T12:24:03.110Z,18.65
2023-05-07T12:25:03.215Z,18.67
2023-05-07T12:26:05.735Z,18.68
2023-05-07T12:27:03.448Z,18.68
2023-05-07T12:28:03.545Z,18.68
2023-05-07T12:29:03.672Z,18.68
2023-05-07T12:30:03.774Z,18.68
2023-05-07T12:31:03.979Z,18.67
2023-05-07T12:32:07.047Z,18.65
2023-05-07T12:33:04.251Z,18.61
2023-05-07T12:34:04.314Z,18.58
2023-05-07T12:35:04.932Z,18.55
2023-05-07T12:36:04.510Z,18.53
2023-05-07T12:37:04.674Z,18.51
2023-05-07T12:38:04.855Z,18.44
2023-05-07T12:39:04.876Z,18.34
2023-05-07T12:40:04.997Z,18.25
2023-05-07T12:41:05.164Z,18.15
2023-05-07T12:42:05.197Z,18.02
2023-05-07T12:43:05.360Z,17.89
2023-05-07T12:44:05.443Z,17.73
2023-05-07T12:46:05.719Z,17.47
2023-05-07T12:47:05.787Z,17.40
2023-05-07T12:48:05.925Z,17.36
2023-05-07T12:49:06.072Z,17.35
2023-05-07T12:50:06.234Z,17.36
2023-05-07T12:51:06.291Z,17.38
2023-05-07T12:52:06.389Z,17.41
2023-05-07T12:53:06.592Z,17.44
2023-05-07T12:54:06.656Z,17.46
2023-05-07T12:55:06.770Z,17.50